Time;durP1;ratioP1;P1;durP2;ratioP2;P2;SDS_P1;SDS_P2;PMS_P1;PMS_P2;Temp;Humidity;BMP_temperature;BMP_pressure;BME280_temperature;BME280_humidity;BME280_pressure;Samples;Min_cycle;Max_cycle;Signal;HPM_P1;HPM_P2
2023/10/05 00:00:57;;;;;;;13.80;4.18;;;14.20;99.90;;;;;;5049577;28;20533;-58
2023/10/05 00:03:23;;;;;;;12.70;3.40;;;14.30;99.90;;;;;;5060155;28;20366;-58
2023/10/05 00:05:49;;;;;;;11.63;3.75;;;14.30;99.90;;;;;;5068986;28;20044;-58
2023/10/05 00:08:15;;;;;;;11.65;3.25;;;14.40;99.90;;;;;;5057725;28;20428;-57
2023/10/05 00:10:40;;;;;;;9.43;3.40;;;14.50;99.90;;;;;;5058199;28;20056;-57
2023/10/05 00:13:07;;;;;;;13.10;3.97;;;14.50;99.90;;;;;;5057333;28;20049;-57
2023/10/05 00:15:36;;;;;;;12.90;4.03;;;14.60;99.90;;;;;;5057705;28;20052;-57
2023/10/05 00:18:05;;;;;;;9.93;3.13;;;14.60;99.90;;;;;;5058550;28;20047;-57
2023/10/05 00:20:38;;;;;;;13.85;3.28;;;14.70;99.90;;;;;;5060905;28;20040;-58
2023/10/05 00:23:08;;;;;;;15.02;3.70;;;14.70;99.90;;;;;;5077727;28;20032;-58
2023/10/05 00:25:34;;;;;;;9.13;2.63;;;14.70;99.90;;;;;;5060210;28;20560;-58
2023/10/05 00:28:04;;;;;;;9.23;2.80;;;14.80;99.90;;;;;;5076613;28;20037;-58
2023/10/05 00:30:42;;;;;;;10.02;2.67;;;14.80;99.90;;;;;;5110234;28;20080;-58
2023/10/05 00:33:11;;;;;;;9.93;2.95;;;14.80;99.90;;;;;;5077056;28;20133;-57
2023/10/05 00:35:38;;;;;;;7.55;2.65;;;14.90;99.90;;;;;;5076298;28;20400;-57
2023/10/05 00:38:16;;;;;;;15.68;3.95;;;14.80;99.90;;;;;;5063968;28;20051;-58
2023/10/05 00:41:04;;;;;;;8.80;2.60;;;14.80;99.90;;;;;;5056901;28;20044;-57
2023/10/05 00:43:31;;;;;;;13.75;3.72;;;14.80;99.90;;;;;;5056985;28;20036;-58
2023/10/05 00:45:58;;;;;;;8.98;2.70;;;14.70;99.90;;;;;;5057088;28;20044;-58
2023/10/05 00:51:26;;;;;;;11.88;3.35;;;14.80;99.90;;;;;;5022794;28;20045;-58
2023/10/05 00:53:53;;;;;;;15.00;4.22;;;14.80;99.90;;;;;;5039987;28;20044;-57
2023/10/05 00:56:22;;;;;;;11.05;2.70;;;14.80;99.90;;;;;;5056340;28;20047;-58
2023/10/05 00:58:52;;;;;;;6.65;2.40;;;14.80;99.90;;;;;;5039903;28;20045;-58
2023/10/05 01:01:23;;;;;;;13.80;3.20;;;14.80;99.90;;;;;;5056581;28;20045;-58
2023/10/05 01:06:40;;;;;;;8.32;2.63;;;14.80;99.90;;;;;;5061665;28;20493;-58
2023/10/05 01:11:54;;;;;;;10.40;2.58;;;14.80;99.90;;;;;;5063668;28;20448;-57
2023/10/05 01:14:23;;;;;;;11.27;3.75;;;14.80;99.90;;;;;;5039818;28;20047;-57
2023/10/05 01:16:49;;;;;;;9.80;2.63;;;14.80;99.90;;;;;;5054940;28;20394;-58
2023/10/05 01:19:15;;;;;;;8.90;2.70;;;14.70;99.90;;;;;;5035896;28;20053;-58
2023/10/05 01:21:43;;;;;;;15.32;3.05;;;14.70;99.90;;;;;;5054595;28;20041;-57
2023/10/05 01:24:10;;;;;;;11.77;2.95;;;14.70;99.90;;;;;;5069065;28;20032;-57
2023/10/05 01:26:37;;;;;;;14.15;2.97;;;14.70;99.90;;;;;;5055687;28;20048;-58
2023/10/05 01:29:04;;;;;;;11.38;2.95;;;14.70;99.90;;;;;;5074743;28;20075;-57
2023/10/05 01:31:31;;;;;;;10.43;3.22;;;14.80;99.90;;;;;;5062410;28;20041;-58
2023/10/05 01:34:01;;;;;;;11.25;2.95;;;14.80;99.90;;;;;;5036618;28;20047;-58
2023/10/05 01:36:27;;;;;;;13.27;2.90;;;14.80;99.90;;;;;;5072983;28;20048;-58
2023/10/05 01:39:00;;;;;;;9.02;2.58;;;14.80;99.90;;;;;;5073784;28;20032;-58
2023/10/05 01:41:38;;;;;;;10.32;2.45;;;14.80;99.90;;;;;;5071906;28;20044;-58
2023/10/05 01:44:04;;;;;;;9.73;2.45;;;14.80;99.90;;;;;;5072552;28;20397;-57
2023/10/05 01:46:35;;;;;;;15.48;3.58;;;14.80;99.90;;;;;;5071984;28;20199;-58
2023/10/05 01:49:01;;;;;;;8.55;2.70;;;14.80;99.90;;;;;;5073044;28;20094;-57
2023/10/05 01:51:28;;;;;;;13.43;3.22;;;14.80;99.90;;;;;;5070984;28;20060;-58
2023/10/05 01:54:10;;;;;;;10.52;3.13;;;14.80;99.90;;;;;;5057955;28;20044;-57
2023/10/05 01:56:37;;;;;;;15.82;3.15;;;14.80;99.90;;;;;;5052764;28;20056;-58
2023/10/05 01:59:06;;;;;;;9.70;3.20;;;14.80;99.90;;;;;;5086811;28;20084;-57
2023/10/05 02:01:38;;;;;;;14.70;3.50;;;14.80;99.90;;;;;;5051855;28;20416;-58
2023/10/05 02:04:05;;;;;;;15.55;3.63;;;14.80;99.90;;;;;;5054241;28;20433;-57
2023/10/05 02:06:40;;;;;;;17.88;3.17;;;14.80;99.90;;;;;;5052638;28;20052;-58
2023/10/05 02:09:10;;;;;;;8.85;3.40;;;14.70;99.90;;;;;;5054072;28;20041;-57
2023/10/05 02:11:36;;;;;;;14.65;3.85;;;14.70;99.90;;;;;;5053973;28;20449;-58
2023/10/05 02:14:06;;;;;;;13.18;3.40;;;14.70;99.90;;;;;;5035397;28;20052;-58
2023/10/05 02:16:32;;;;;;;12.68;3.33;;;14.70;99.90;;;;;;5053671;28;20041;-58
2023/10/05 02:19:02;;;;;;;11.35;3.78;;;14.60;99.90;;;;;;5052435;28;20126;-57
2023/10/05 02:21:46;;;;;;;11.80;3.17;;;14.60;99.90;;;;;;5052387;28;20084;-58
2023/10/05 02:24:18;;;;;;;11.27;3.35;;;14.60;99.90;;;;;;5035924;28;20045;-58
2023/10/05 02:27:32;;;;;;;9.05;2.90;;;14.60;99.90;;;;;;5053445;28;20390;-58
2023/10/05 02:29:43;;;;;;;13.10;3.90;;;14.60;99.90;;;;;;5043231;28;20053;-57
2023/10/05 02:32:14;;;;;;;12.65;3.97;;;14.70;99.90;;;;;;5035787;28;20105;-58
2023/10/05 02:37:28;;;;;;;17.20;4.63;;;14.60;99.90;;;;;;5085806;28;20045;-58
2023/10/05 02:39:56;;;;;;;15.13;3.80;;;14.60;99.90;;;;;;5057181;28;20040;-58
2023/10/05 02:42:24;;;;;;;11.82;3.75;;;14.60;99.90;;;;;;5052372;28;20045;-58
2023/10/05 02:44:53;;;;;;;12.43;3.05;;;14.60;99.90;;;;;;5052898;28;20147;-58
2023/10/05 02:47:23;;;;;;;14.35;3.42;;;14.60;99.90;;;;;;5052896;28;20056;-58
2023/10/05 02:49:49;;;;;;;12.98;4.07;;;14.60;99.90;;;;;;5050934;28;20379;-57
2023/10/05 02:52:16;;;;;;;12.05;3.53;;;14.70;99.90;;;;;;5067729;28;20076;-58
2023/10/05 02:54:49;;;;;;;11.95;3.95;;;14.70;99.90;;;;;;5052916;28;20072;-57
2023/10/05 02:57:16;;;;;;;15.50;3.40;;;14.70;99.90;;;;;;5050826;28;20079;-58
2023/10/05 02:59:45;;;;;;;11.63;4.07;;;14.70;99.90;;;;;;5051655;28;20036;-58
2023/10/05 03:02:16;;;;;;;16.85;3.80;;;14.70;99.90;;;;;;5064782;28;20038;-58
2023/10/05 03:04:58;;;;;;;11.05;3.17;;;14.70;99.90;;;;;;5031938;28;20601;-57
2023/10/05 03:07:27;;;;;;;12.40;3.65;;;14.80;99.90;;;;;;5064956;28;20421;-58
2023/10/05 03:09:59;;;;;;;10.80;3.50;;;14.80;99.90;;;;;;5065465;28;20037;-58
2023/10/05 03:12:25;;;;;;;14.60;3.75;;;14.80;99.90;;;;;;5071227;28;20169;-58
2023/10/05 03:14:52;;;;;;;14.57;3.58;;;14.80;99.90;;;;;;5071479;28;20044;-58
2023/10/05 03:17:22;;;;;;;11.15;3.63;;;14.90;99.90;;;;;;5059658;28;20040;-57
2023/10/05 03:19:51;;;;;;;10.85;3.35;;;14.80;99.90;;;;;;5051295;28;20137;-58
2023/10/05 03:22:17;;;;;;;8.57;3.42;;;14.80;99.90;;;;;;5065877;28;20512;-58
2023/10/05 03:24:47;;;;;;;11.93;3.70;;;14.90;99.90;;;;;;5047006;28;20045;-58
2023/10/05 03:27:16;;;;;;;14.23;4.20;;;14.90;99.90;;;;;;5059684;28;20037;-58
2023/10/05 03:29:46;;;;;;;12.15;3.38;;;14.90;99.90;;;;;;5052254;28;20517;-58
2023/10/05 03:34:38;;;;;;;11.98;3.78;;;14.90;99.90;;;;;;5084466;28;20512;-57
2023/10/05 03:37:08;;;;;;;10.50;3.30;;;14.90;99.90;;;;;;5051146;28;20049;-58
2023/10/05 03:39:48;;;;;;;15.85;4.25;;;14.90;99.90;;;;;;5051003;28;20435;-57
2023/10/05 03:42:14;;;;;;;12.63;4.25;;;14.90;99.90;;;;;;5050673;28;20041;-58
2023/10/05 03:44:40;;;;;;;14.90;4.20;;;14.90;99.90;;;;;;5050817;28;20041;-58
2023/10/05 03:47:06;;;;;;;12.98;4.28;;;14.90;99.90;;;;;;5050127;28;20052;-58
2023/10/05 03:49:31;;;;;;;14.63;3.58;;;14.80;99.90;;;;;;5050577;28;20045;-58
2023/10/05 03:51:57;;;;;;;15.52;4.03;;;14.80;99.90;;;;;;5032738;28;20057;-58
2023/10/05 03:54:26;;;;;;;11.20;3.35;;;14.90;99.90;;;;;;5030574;28;20037;-58
2023/10/05 03:57:04;;;;;;;12.18;4.13;;;14.80;99.90;;;;;;5014281;28;20445;-58
2023/10/05 03:59:33;;;;;;;12.52;4.30;;;14.90;99.90;;;;;;5030231;28;20371;-58
2023/10/05 04:02:00;;;;;;;10.77;3.67;;;14.90;99.90;;;;;;5051776;28;20041;-58
2023/10/05 04:04:33;;;;;;;12.00;4.03;;;14.90;99.90;;;;;;5050595;28;20120;-58
2023/10/05 04:06:59;;;;;;;15.50;5.13;;;14.90;99.90;;;;;;5033545;28;20041;-58
2023/10/05 04:09:28;;;;;;;11.35;3.72;;;14.80;99.90;;;;;;5050524;28;20398;-58
2023/10/05 04:11:54;;;;;;;16.83;4.05;;;14.70;99.90;;;;;;5050696;28;20049;-58
2023/10/05 04:14:20;;;;;;;17.00;3.90;;;14.80;99.90;;;;;;5050700;28;20494;-58
2023/10/05 04:16:48;;;;;;;14.82;4.32;;;14.70;99.90;;;;;;5034073;28;20127;-58
2023/10/05 04:19:17;;;;;;;13.30;3.60;;;14.70;99.90;;;;;;5062740;28;20045;-58
2023/10/05 04:21:44;;;;;;;13.63;3.83;;;14.60;99.90;;;;;;5052142;28;20071;-58
2023/10/05 04:24:14;;;;;;;12.07;4.93;;;14.60;99.90;;;;;;5051675;28;20543;-58
2023/10/05 04:26:44;;;;;;;12.70;3.45;;;14.60;99.90;;;;;;5051923;28;20386;-58
2023/10/05 04:29:14;;;;;;;14.70;4.13;;;14.50;99.90;;;;;;5050944;28;20095;-58
2023/10/05 04:31:41;;;;;;;13.38;3.97;;;14.50;99.90;;;;;;5050324;28;20053;-58
2023/10/05 04:34:11;;;;;;;18.15;4.80;;;14.40;99.90;;;;;;5050446;28;20481;-58
2023/10/05 04:36:41;;;;;;;20.67;4.57;;;14.30;99.90;;;;;;5050285;28;20098;-58
2023/10/05 04:39:07;;;;;;;11.77;3.30;;;14.30;99.90;;;;;;5050061;28;20037;-58
2023/10/05 04:41:39;;;;;;;16.63;4.30;;;14.30;99.90;;;;;;5049200;28;20047;-58
2023/10/05 04:44:12;;;;;;;16.92;4.43;;;14.30;99.90;;;;;;5050506;28;20071;-58
2023/10/05 04:46:47;;;;;;;13.10;4.18;;;14.30;99.90;;;;;;5050064;28;20045;-58
2023/10/05 04:49:16;;;;;;;15.13;5.05;;;14.30;99.90;;;;;;5050143;28;20037;-58
2023/10/05 04:51:43;;;;;;;14.48;3.92;;;14.30;99.90;;;;;;5063519;28;20505;-58
2023/10/05 04:54:11;;;;;;;17.55;4.13;;;14.30;99.90;;;;;;5075088;28;20485;-58
2023/10/05 04:56:54;;;;;;;12.25;3.67;;;14.30;99.90;;;;;;5073029;28;20045;-58
2023/10/05 04:59:37;;;;;;;10.38;3.50;;;14.30;99.90;;;;;;5072993;28;20078;-58
2023/10/05 05:02:20;;;;;;;19.38;4.90;;;14.30;99.90;;;;;;5057269;28;20048;-58
2023/10/05 05:07:13;;;;;;;16.58;4.20;;;14.20;99.90;;;;;;5074984;28;20553;-58
2023/10/05 05:09:42;;;;;;;15.93;4.50;;;14.30;99.90;;;;;;5042499;28;20040;-58
2023/10/05 05:12:24;;;;;;;13.25;3.80;;;14.20;99.90;;;;;;5053439;28;20123;-58
2023/10/05 05:14:52;;;;;;;14.40;4.80;;;14.30;99.90;;;;;;5054731;28;20121;-58
2023/10/05 05:17:19;;;;;;;13.55;3.78;;;14.30;99.90;;;;;;5053165;28;20525;-58
2023/10/05 05:19:46;;;;;;;12.77;3.88;;;14.30;99.90;;;;;;5067252;28;20119;-58
2023/10/05 05:22:13;;;;;;;13.32;5.03;;;14.30;99.90;;;;;;5056381;28;20053;-58
2023/10/05 05:24:39;;;;;;;17.85;4.22;;;14.30;99.90;;;;;;5052474;28;20044;-58
2023/10/05 05:29:47;;;;;;;16.35;5.53;;;14.50;99.90;;;;;;5100206;28;20055;-58
2023/10/05 05:32:13;;;;;;;11.07;3.90;;;14.50;99.90;;;;;;5071154;28;20048;-58
2023/10/05 05:34:43;;;;;;;13.60;3.80;;;14.50;99.90;;;;;;5053104;28;20472;-58
2023/10/05 05:39:45;;;;;;;15.18;4.03;;;14.60;99.90;;;;;;5099493;28;20491;-58
2023/10/05 05:42:14;;;;;;;18.02;4.70;;;14.60;99.90;;;;;;5074385;28;20037;-58
2023/10/05 05:44:41;;;;;;;14.77;4.57;;;14.70;99.90;;;;;;5072722;28;20048;-58
2023/10/05 05:47:11;;;;;;;16.80;4.22;;;14.70;99.90;;;;;;5056323;28;20051;-58
2023/10/05 05:49:40;;;;;;;12.65;3.88;;;14.70;99.90;;;;;;5064876;28;20060;-58
2023/10/05 05:52:08;;;;;;;17.05;4.43;;;14.70;99.90;;;;;;5053470;28;20037;-58
2023/10/05 05:54:37;;;;;;;13.73;3.92;;;14.70;99.90;;;;;;5052948;28;20049;-57
2023/10/05 05:57:06;;;;;;;14.82;4.60;;;14.70;99.90;;;;;;5063152;28;20036;-57
2023/10/05 05:59:34;;;;;;;14.40;4.40;;;14.70;99.90;;;;;;5060014;28;20112;-58
2023/10/05 06:02:03;;;;;;;14.77;4.40;;;14.70;99.90;;;;;;5054728;28;20045;-58
2023/10/05 06:04:32;;;;;;;21.65;4.70;;;14.70;99.90;;;;;;5057169;28;20177;-59
2023/10/05 06:06:59;;;;;;;13.40;4.47;;;14.70;99.90;;;;;;5039233;28;20068;-58
2023/10/05 06:09:27;;;;;;;10.88;3.83;;;14.80;99.90;;;;;;5064779;28;20525;-58
2023/10/05 06:11:53;;;;;;;13.73;3.45;;;14.80;99.90;;;;;;5060497;28;20409;-58
2023/10/05 06:14:19;;;;;;;14.57;3.90;;;14.80;99.90;;;;;;5051998;28;20060;-58
2023/10/05 06:16:45;;;;;;;11.57;3.42;;;14.80;99.90;;;;;;5052298;28;20045;-58
2023/10/05 06:19:11;;;;;;;11.52;4.07;;;14.80;99.90;;;;;;5053132;28;20041;-58
2023/10/05 06:21:37;;;;;;;12.23;3.63;;;14.80;99.90;;;;;;5051383;28;20550;-58
2023/10/05 06:24:04;;;;;;;12.77;3.17;;;14.80;99.90;;;;;;5052782;28;20041;-58
2023/10/05 06:26:30;;;;;;;11.27;3.45;;;14.80;99.90;;;;;;5072806;28;20496;-58
2023/10/05 06:28:56;;;;;;;9.60;3.00;;;14.90;99.90;;;;;;5059205;28;20036;-58
2023/10/05 06:31:23;;;;;;;10.65;3.65;;;14.80;99.90;;;;;;5058336;28;20052;-58
2023/10/05 06:33:48;;;;;;;15.63;3.40;;;14.90;99.90;;;;;;5052347;28;20375;-58
2023/10/05 06:36:14;;;;;;;10.57;3.25;;;14.80;99.90;;;;;;5035254;28;20047;-59
2023/10/05 06:38:41;;;;;;;11.75;3.20;;;14.90;99.90;;;;;;5056533;28;20040;-58
2023/10/05 06:41:07;;;;;;;13.75;3.40;;;14.90;99.90;;;;;;5063857;28;20051;-59
2023/10/05 06:43:35;;;;;;;9.88;3.00;;;14.90;99.90;;;;;;5040943;28;20456;-59
2023/10/05 06:46:14;;;;;;;10.60;3.47;;;14.90;99.90;;;;;;5073036;28;20041;-59
2023/10/05 06:48:40;;;;;;;11.52;3.22;;;14.90;99.90;;;;;;5061121;28;20088;-59
2023/10/05 06:51:07;;;;;;;10.88;3.55;;;14.90;99.90;;;;;;5068694;28;20358;-59
2023/10/05 06:53:32;;;;;;;10.75;2.90;;;14.90;99.90;;;;;;5058336;28;20079;-59
2023/10/05 06:55:58;;;;;;;10.13;3.60;;;14.90;99.90;;;;;;5052364;28;20080;-59
2023/10/05 06:58:24;;;;;;;9.10;2.60;;;14.90;99.90;;;;;;5052964;28;20445;-59
2023/10/05 07:00:50;;;;;;;8.75;2.92;;;14.90;99.90;;;;;;5059946;28;20044;-59
2023/10/05 07:03:16;;;;;;;10.63;2.78;;;14.90;99.90;;;;;;5052089;28;20044;-59
2023/10/05 07:05:41;;;;;;;8.95;2.90;;;14.80;99.90;;;;;;5051572;28;20036;-59
2023/10/05 07:08:07;;;;;;;9.45;2.95;;;14.90;99.90;;;;;;5054641;28;20053;-59
2023/10/05 07:10:33;;;;;;;9.40;2.60;;;14.90;99.90;;;;;;5053331;28;20529;-59
2023/10/05 07:12:59;;;;;;;10.15;3.13;;;14.90;99.90;;;;;;5056770;28;20089;-59
2023/10/05 07:15:24;;;;;;;13.38;3.72;;;14.90;99.90;;;;;;5063652;28;20112;-60
2023/10/05 07:17:50;;;;;;;9.82;2.92;;;14.90;99.90;;;;;;5041397;28;20045;-60
2023/10/05 07:20:19;;;;;;;13.50;2.97;;;14.90;99.90;;;;;;5054943;28;20037;-60
2023/10/05 07:22:47;;;;;;;8.50;2.67;;;14.90;99.90;;;;;;5060325;28;20040;-60
2023/10/05 07:25:14;;;;;;;10.48;3.88;;;14.90;99.90;;;;;;5053491;28;20135;-59
2023/10/05 07:27:44;;;;;;;8.55;2.70;;;14.90;99.90;;;;;;5061236;28;20040;-61
2023/10/05 07:30:10;;;;;;;13.68;3.20;;;14.90;99.90;;;;;;5064442;28;20045;-61
2023/10/05 07:32:36;;;;;;;9.07;2.50;;;15.00;99.90;;;;;;5068973;28;20500;-60
2023/10/05 07:35:05;;;;;;;14.40;3.80;;;15.00;99.90;;;;;;5066077;28;20029;-60
2023/10/05 07:37:31;;;;;;;9.43;3.33;;;15.00;99.90;;;;;;5058570;28;20485;-60
2023/10/05 07:39:58;;;;;;;8.27;3.42;;;15.10;99.90;;;;;;5051541;28;20136;-61
2023/10/05 07:42:26;;;;;;;8.60;3.13;;;15.00;99.90;;;;;;5066321;28;20055;-60
2023/10/05 07:44:51;;;;;;;14.48;3.38;;;15.10;99.90;;;;;;5039867;28;20124;-60
2023/10/05 07:47:17;;;;;;;10.32;4.00;;;15.10;99.90;;;;;;5050419;28;20171;-61
2023/10/05 07:49:43;;;;;;;12.60;3.63;;;15.10;99.90;;;;;;5081987;28;20075;-61
2023/10/05 07:52:10;;;;;;;12.70;3.45;;;15.20;99.90;;;;;;5047770;28;20092;-61
2023/10/05 07:54:38;;;;;;;10.52;3.50;;;15.20;99.90;;;;;;5049313;28;20048;-61
2023/10/05 07:57:10;;;;;;;15.63;3.72;;;15.20;99.90;;;;;;5048476;28;20052;-61
2023/10/05 07:59:41;;;;;;;10.30;3.90;;;15.20;99.90;;;;;;5047101;28;20083;-61
2023/10/05 08:02:08;;;;;;;16.08;4.00;;;15.30;99.90;;;;;;5032339;28;20044;-61
2023/10/05 08:04:35;;;;;;;12.23;4.10;;;15.20;99.90;;;;;;5048169;28;20049;-61
2023/10/05 08:07:01;;;;;;;13.98;4.50;;;15.30;99.90;;;;;;5049013;28;20254;-61
2023/10/05 08:09:27;;;;;;;9.15;3.30;;;15.40;99.90;;;;;;5048170;28;20154;-61
2023/10/05 08:11:57;;;;;;;8.18;3.80;;;15.30;99.90;;;;;;5049002;28;20103;-60
2023/10/05 08:14:24;;;;;;;11.48;3.67;;;15.40;99.90;;;;;;5047573;28;20044;-61
2023/10/05 08:16:57;;;;;;;9.70;3.60;;;15.30;99.90;;;;;;5048221;28;20095;-61
2023/10/05 08:19:26;;;;;;;14.88;4.10;;;15.30;99.90;;;;;;5045578;28;20053;-62
2023/10/05 08:21:53;;;;;;;12.20;4.05;;;15.40;99.90;;;;;;5048007;28;20045;-61
2023/10/05 08:24:20;;;;;;;14.00;3.92;;;15.30;99.90;;;;;;5047492;28;20053;-61
2023/10/05 08:26:49;;;;;;;12.45;3.58;;;15.40;99.90;;;;;;5049747;28;20482;-62
2023/10/05 08:29:17;;;;;;;9.18;3.47;;;15.30;99.90;;;;;;5053545;28;20044;-61
2023/10/05 08:31:44;;;;;;;11.23;4.03;;;15.40;99.90;;;;;;5056272;28;20517;-61
2023/10/05 08:34:14;;;;;;;14.43;3.67;;;15.50;99.90;;;;;;5055158;28;20032;-61
2023/10/05 08:36:41;;;;;;;12.35;3.72;;;15.40;99.90;;;;;;5068168;28;20043;-61
2023/10/05 08:39:08;;;;;;;12.93;2.80;;;15.50;99.90;;;;;;5061667;28;20064;-61
2023/10/05 08:41:39;;;;;;;10.88;3.25;;;15.50;99.90;;;;;;5049689;28;20056;-61
2023/10/05 08:44:11;;;;;;;8.98;3.40;;;15.60;99.90;;;;;;5050753;28;20449;-61
2023/10/05 08:46:43;;;;;;;12.18;3.47;;;15.70;99.90;;;;;;5050276;28;20041;-61
2023/10/05 08:49:15;;;;;;;11.50;3.05;;;15.80;99.90;;;;;;5032266;28;20044;-61
2023/10/05 08:51:41;;;;;;;15.27;3.78;;;15.80;99.90;;;;;;5065722;28;20048;-61
2023/10/05 08:54:13;;;;;;;8.27;2.65;;;16.00;99.90;;;;;;5069006;28;20052;-61
2023/10/05 08:56:47;;;;;;;12.60;3.58;;;15.90;99.90;;;;;;5051509;28;20410;-61
2023/10/05 08:59:14;;;;;;;13.05;3.58;;;16.00;99.90;;;;;;5035426;28;20048;-61
2023/10/05 09:01:45;;;;;;;11.30;3.80;;;16.00;99.90;;;;;;5054031;28;20406;-61
2023/10/05 09:04:12;;;;;;;11.27;3.10;;;16.10;99.90;;;;;;5037680;28;20091;-61
2023/10/05 09:06:57;;;;;;;9.68;2.70;;;16.20;99.90;;;;;;5064515;28;20074;-61
2023/10/05 09:09:51;;;;;;;13.20;3.50;;;16.20;99.90;;;;;;5069388;28;20044;-61
2023/10/05 09:20:33;;;;;;;9.82;3.40;;;16.10;99.90;;;;;;5052979;28;20051;-61
2023/10/05 09:23:07;;;;;;;13.27;4.78;;;16.10;99.90;;;;;;5053085;28;20037;-61
2023/10/05 09:25:38;;;;;;;10.02;3.58;;;16.00;99.90;;;;;;5053485;28;20433;-61
2023/10/05 09:28:28;;;;;;;12.25;3.53;;;16.00;99.90;;;;;;5072379;28;20076;-61
2023/10/05 09:30:55;;;;;;;9.93;3.83;;;16.00;99.90;;;;;;5067808;28;20045;-61
2023/10/05 09:33:28;;;;;;;12.02;3.95;;;16.00;99.90;;;;;;5054275;28;20095;-61
2023/10/05 09:36:06;;;;;;;12.55;3.60;;;16.10;99.90;;;;;;5053117;28;20044;-61
2023/10/05 09:38:35;;;;;;;9.77;3.80;;;16.10;99.90;;;;;;5060350;28;20050;-61
2023/10/05 09:41:02;;;;;;;9.15;3.00;;;16.10;99.90;;;;;;5068079;28;20469;-61
2023/10/05 09:43:36;;;;;;;11.88;3.10;;;16.10;99.90;;;;;;5052846;28;20552;-61
2023/10/05 09:46:02;;;;;;;8.50;3.50;;;16.20;99.90;;;;;;5037519;28;20036;-61
2023/10/05 09:48:31;;;;;;;9.45;3.80;;;16.20;99.90;;;;;;5052632;28;20067;-61
2023/10/05 09:50:59;;;;;;;8.02;3.13;;;16.30;99.90;;;;;;5035459;28;20060;-61
2023/10/05 09:53:26;;;;;;;16.90;4.30;;;16.40;99.90;;;;;;5052611;28;20052;-61
2023/10/05 09:55:54;;;;;;;15.48;3.90;;;16.50;99.90;;;;;;5052274;28;20489;-61
2023/10/05 09:58:21;;;;;;;9.75;2.78;;;16.50;99.90;;;;;;5051593;28;20071;-62
2023/10/05 10:00:48;;;;;;;9.65;2.83;;;16.60;99.90;;;;;;5052569;28;20052;-61
2023/10/05 10:03:17;;;;;;;7.72;3.00;;;16.60;99.90;;;;;;5052013;28;20489;-62
2023/10/05 10:05:52;;;;;;;14.35;4.10;;;16.60;99.90;;;;;;5036858;28;20543;-61
2023/10/05 10:08:28;;;;;;;;;;;16.60;99.90;;;;;;5054405;28;20390;-61
2023/10/05 10:11:08;;;;;;;9.20;3.55;;;16.60;99.90;;;;;;5058571;28;19921;-61
2023/10/05 10:13:39;;;;;;;13.07;3.45;;;16.60;99.90;;;;;;5055542;28;20076;-61
2023/10/05 10:16:16;;;;;;;10.90;3.15;;;16.60;99.90;;;;;;5056173;28;20060;-62
2023/10/05 10:18:44;;;;;;;11.55;3.63;;;16.60;99.90;;;;;;5057249;28;20120;-61
2023/10/05 10:21:32;;;;;;;11.20;3.30;;;16.60;99.90;;;;;;5051887;28;20037;-61
2023/10/05 10:24:06;;;;;;;8.65;3.25;;;16.60;99.90;;;;;;5055589;28;20048;-61
2023/10/05 10:27:11;;;;;;;7.15;2.50;;;16.70;99.90;;;;;;5068926;28;20044;-62
2023/10/05 10:29:55;;;;;;;5.87;2.40;;;16.70;99.90;;;;;;5047365;28;20048;-61
2023/10/05 10:32:24;;;;;;;11.07;3.22;;;16.80;99.90;;;;;;5059242;28;20044;-61
2023/10/05 10:34:55;;;;;;;12.13;3.08;;;16.80;99.90;;;;;;5051035;28;20051;-61
2023/10/05 10:37:44;;;;;;;8.75;3.20;;;16.80;99.90;;;;;;5034910;28;20071;-62
2023/10/05 10:45:29;;;;;;;10.10;3.17;;;17.00;99.90;;;;;;5058528;28;20051;-62
2023/10/05 10:47:56;;;;;;;10.68;4.10;;;17.00;99.90;;;;;;5051016;28;20051;-62
2023/10/05 10:50:23;;;;;;;7.68;2.40;;;17.10;99.90;;;;;;5034959;28;20490;-62
2023/10/05 10:52:55;;;;;;;11.15;3.38;;;17.10;99.90;;;;;;5052999;28;20466;-62
2023/10/05 10:55:30;;;;;;;11.93;3.03;;;17.10;99.90;;;;;;5055061;28;20045;-61
2023/10/05 10:57:57;;;;;;;8.82;2.28;;;17.20;99.90;;;;;;5054467;28;20477;-62
2023/10/05 11:03:15;;;;;;;10.60;2.73;;;16.80;99.90;;;;;;5049964;28;20057;-60
2023/10/05 11:05:51;;;;;;;7.47;2.23;;;16.50;99.90;;;;;;5066836;28;20107;-61
2023/10/05 11:08:30;;;;;;;7.90;3.35;;;16.30;99.90;;;;;;5051878;28;20033;-61
2023/10/05 11:11:09;;;;;;;8.50;2.72;;;16.20;99.90;;;;;;5051499;28;20041;-61
2023/10/05 11:13:43;;;;;;;8.73;2.92;;;16.10;99.90;;;;;;5056265;28;20036;-62
2023/10/05 11:16:09;;;;;;;9.55;3.45;;;16.00;99.90;;;;;;5054371;28;20144;-61
2023/10/05 11:18:44;;;;;;;9.10;3.00;;;15.90;99.90;;;;;;5051144;28;20037;-61
2023/10/05 11:21:23;;;;;;;9.20;2.90;;;15.80;99.90;;;;;;5034699;28;20045;-61
2023/10/05 11:23:57;;;;;;;8.95;2.60;;;15.90;99.90;;;;;;5050683;28;20049;-61
2023/10/05 11:26:33;;;;;;;8.10;3.05;;;15.90;99.90;;;;;;5050449;28;20037;-61
2023/10/05 11:29:15;;;;;;;12.07;3.20;;;15.90;99.90;;;;;;5030254;28;20045;-61
2023/10/05 11:31:41;;;;;;;9.15;2.67;;;16.00;99.90;;;;;;5028709;28;20053;-61
2023/10/05 11:34:11;;;;;;;8.85;3.08;;;16.00;99.90;;;;;;5045499;28;20054;-60
2023/10/05 11:36:44;;;;;;;11.25;3.50;;;16.10;99.90;;;;;;5011506;28;20064;-61
2023/10/05 11:39:22;;;;;;;11.35;4.47;;;16.10;99.90;;;;;;5061763;28;20053;-61
2023/10/05 11:41:48;;;;;;;9.57;3.30;;;16.20;99.90;;;;;;5046646;28;20190;-61
2023/10/05 11:44:24;;;;;;;11.02;3.88;;;16.10;99.90;;;;;;5053842;28;20041;-61
2023/10/05 11:46:57;;;;;;;9.65;3.28;;;16.20;99.90;;;;;;5046124;28;20036;-61
2023/10/05 11:49:33;;;;;;;15.23;4.25;;;16.20;99.90;;;;;;5047694;28;20123;-61
2023/10/05 11:52:00;;;;;;;14.23;4.05;;;16.20;99.90;;;;;;5047062;28;20048;-60
2023/10/05 11:54:29;;;;;;;13.93;3.63;;;16.20;99.90;;;;;;5050055;28;20129;-61
2023/10/05 11:56:56;;;;;;;9.63;3.00;;;16.30;99.90;;;;;;5047500;28;20088;-61
2023/10/05 11:59:29;;;;;;;9.27;3.15;;;16.30;99.90;;;;;;5045783;28;20405;-61
2023/10/05 12:01:55;;;;;;;11.30;3.55;;;16.40;99.90;;;;;;5047647;28;20051;-61
2023/10/05 12:04:23;;;;;;;8.30;3.17;;;16.50;99.90;;;;;;5046890;28;20037;-60
2023/10/05 12:06:58;;;;;;;11.45;3.40;;;16.50;99.90;;;;;;5064888;28;20052;-61
2023/10/05 12:09:32;;;;;;;6.60;2.78;;;16.60;99.90;;;;;;5047710;28;20047;-61
2023/10/05 12:11:59;;;;;;;9.02;2.67;;;16.70;99.90;;;;;;5047600;28;20094;-61
2023/10/05 12:14:28;;;;;;;7.53;2.35;;;16.70;99.90;;;;;;5047583;28;20089;-61
2023/10/05 12:16:56;;;;;;;7.40;2.70;;;16.60;99.90;;;;;;5047870;28;20386;-61
2023/10/05 12:19:29;;;;;;;13.20;3.35;;;16.60;99.90;;;;;;5031235;28;20037;-62
2023/10/05 12:21:56;;;;;;;8.07;2.60;;;16.60;99.90;;;;;;5048042;28;20049;-62
2023/10/05 12:24:23;;;;;;;7.70;2.30;;;16.60;99.90;;;;;;5033327;28;20029;-62
2023/10/05 12:26:50;;;;;;;7.90;2.70;;;16.60;99.90;;;;;;5055573;28;20504;-62
2023/10/05 12:29:17;;;;;;;8.00;2.50;;;16.60;99.90;;;;;;5061235;28;20128;-61
2023/10/05 12:31:45;;;;;;;10.07;3.08;;;16.50;99.90;;;;;;5048190;28;20111;-62
2023/10/05 12:34:14;;;;;;;8.10;2.95;;;16.60;99.90;;;;;;5047236;28;20040;-61
2023/10/05 12:36:51;;;;;;;12.68;3.17;;;16.60;99.90;;;;;;5047826;28;20094;-62
2023/10/05 12:39:21;;;;;;;10.35;3.60;;;16.60;99.90;;;;;;5047525;28;20362;-62
2023/10/05 12:41:50;;;;;;;10.55;2.80;;;16.60;99.90;;;;;;5030220;28;20045;-62
2023/10/05 12:44:16;;;;;;;12.90;3.08;;;16.60;99.90;;;;;;5049196;28;20063;-62
2023/10/05 12:46:45;;;;;;;8.35;2.90;;;16.60;99.90;;;;;;5050676;28;20489;-61
2023/10/05 12:49:15;;;;;;;8.65;2.58;;;16.80;99.90;;;;;;5067009;28;20045;-62
2023/10/05 12:51:45;;;;;;;12.15;3.22;;;16.80;99.90;;;;;;5067098;28;20084;-61
2023/10/05 12:54:18;;;;;;;12.90;3.17;;;16.90;99.90;;;;;;5066062;28;20460;-62
2023/10/05 12:56:51;;;;;;;11.52;3.10;;;17.00;99.90;;;;;;5080832;28;20099;-62
2023/10/05 12:59:17;;;;;;;8.57;3.03;;;17.20;99.90;;;;;;5047509;28;20060;-62
2023/10/05 13:01:43;;;;;;;8.85;3.17;;;17.30;99.90;;;;;;5030387;28;20103;-62
2023/10/05 13:04:09;;;;;;;9.18;3.30;;;17.40;99.90;;;;;;5047250;28;20057;-61
2023/10/05 13:06:38;;;;;;;8.52;2.80;;;17.50;99.90;;;;;;5048724;28;20051;-62
2023/10/05 13:09:04;;;;;;;14.98;3.00;;;17.60;99.90;;;;;;5047954;28;20481;-62
2023/10/05 13:11:31;;;;;;;9.65;2.47;;;17.60;99.90;;;;;;5048385;28;20049;-62
2023/10/05 13:13:57;;;;;;;11.43;3.00;;;17.70;99.90;;;;;;5052901;28;20043;-62
2023/10/05 13:16:22;;;;;;;9.20;2.17;;;17.70;99.90;;;;;;5050713;28;20438;-62
2023/10/05 13:18:51;;;;;;;8.98;3.00;;;17.70;99.90;;;;;;5052194;28;20087;-61
2023/10/05 13:21:16;;;;;;;8.93;2.30;;;17.60;99.90;;;;;;5050368;28;20045;-62
2023/10/05 13:23:42;;;;;;;7.18;2.58;;;17.50;99.90;;;;;;5050301;28;20051;-62
2023/10/05 13:26:08;;;;;;;10.27;3.05;;;17.60;99.90;;;;;;5051012;28;20127;-62
2023/10/05 13:28:35;;;;;;;7.80;2.20;;;17.60;99.90;;;;;;5054045;28;20044;-62
2023/10/05 13:31:06;;;;;;;10.00;2.70;;;17.60;99.90;;;;;;5070541;28;20040;-62